Time;durP1;ratioP1;P1;durP2;ratioP2;P2;SDS_P1;SDS_P2;PMS_P1;PMS_P2;Temp;Humidity;BMP_temperature;BMP_pressure;BME280_temperature;BME280_humidity;BME280_pressure;Samples;Min_cycle;Max_cycle;Signal;HPM_P1;HPM_P2
2023/03/18 00:00:10;;;;;;;14.25;7.20;;;;;;;4.76;70.40;100446.13;6211821;23;20091;-72
2023/03/18 00:02:39;;;;;;;19.05;6.55;;;;;;;4.73;70.42;100446.38;6210281;23;20049;-71
2023/03/18 00:05:07;;;;;;;14.20;6.57;;;;;;;4.79;70.02;100453.78;6210809;23;20020;-71
2023/03/18 00:07:35;;;;;;;19.60;6.90;;;;;;;4.81;70.03;100449.22;6211506;23;20021;-71
2023/03/18 00:10:03;;;;;;;14.18;6.32;;;;;;;4.84;70.23;100442.81;6210906;23;20025;-72
2023/03/18 00:12:32;;;;;;;12.65;6.18;;;;;;;4.71;69.75;100450.13;6210987;23;20468;-71
2023/03/18 00:14:59;;;;;;;19.73;7.60;;;;;;;4.77;70.19;100453.09;6210335;23;20021;-71
2023/03/18 00:17:26;;;;;;;21.50;6.72;;;;;;;4.72;70.39;100449.13;6211632;23;20099;-73
2023/03/18 00:19:53;;;;;;;23.95;7.40;;;;;;;4.79;70.51;100451.13;6211549;23;20051;-70
2023/03/18 00:22:20;;;;;;;18.52;7.03;;;;;;;4.76;70.29;100445.25;6211546;23;20024;-73
2023/03/18 00:24:47;;;;;;;15.25;6.25;;;;;;;4.81;70.25;100448.38;6211590;23;20025;-73
2023/03/18 00:27:14;;;;;;;21.17;6.55;;;;;;;4.79;70.47;100440.50;6210711;23;20793;-71
2023/03/18 00:29:41;;;;;;;15.18;6.80;;;;;;;4.73;70.23;100434.91;6211544;23;20099;-71
2023/03/18 00:32:08;;;;;;;12.65;5.85;;;;;;;4.62;71.03;100441.09;6211523;23;20087;-71
2023/03/18 00:34:35;;;;;;;15.13;6.03;;;;;;;4.52;71.03;100450.78;6170124;23;20103;-72
2023/03/18 00:37:02;;;;;;;16.70;6.75;;;;;;;4.70;70.90;100445.78;6211293;23;20098;-71
2023/03/18 00:39:31;;;;;;;16.67;7.50;;;;;;;4.64;71.05;100439.16;6211109;23;20024;-71
2023/03/18 00:42:00;;;;;;;11.90;5.75;;;;;;;4.65;71.05;100438.19;6210407;23;20026;-71
2023/03/18 00:44:27;;;;;;;14.75;6.25;;;;;;;4.57;71.28;100438.00;6210645;23;20029;-72
2023/03/18 00:46:54;;;;;;;19.27;6.63;;;;;;;4.50;71.63;100444.78;6210943;23;20453;-72
2023/03/18 00:49:20;;;;;;;15.25;5.80;;;;;;;4.57;71.58;100445.97;6211167;23;20021;-71
2023/03/18 00:51:47;;;;;;;12.18;5.93;;;;;;;4.50;71.62;100434.16;6212372;23;20021;-71
2023/03/18 00:54:17;;;;;;;15.45;7.03;;;;;;;4.45;71.95;100441.66;6210886;23;20020;-71
2023/03/18 00:56:44;;;;;;;11.60;6.13;;;;;;;4.46;72.12;100432.75;6211726;23;20017;-70
2023/03/18 00:59:10;;;;;;;12.63;6.15;;;;;;;4.50;72.15;100437.66;6211103;23;20023;-70
2023/03/18 01:01:37;;;;;;;12.13;6.32;;;;;;;4.51;72.66;100435.84;6203880;23;20052;-70
2023/03/18 01:04:06;;;;;;;18.92;6.18;;;;;;;4.38;72.55;100435.16;6209416;23;20047;-71
2023/03/18 01:06:36;;;;;;;12.75;6.55;;;;;;;4.37;73.04;100434.28;6210310;23;20107;-71
2023/03/18 01:09:07;;;;;;;15.50;6.07;;;;;;;4.41;73.45;100432.25;6187706;23;20385;-71
2023/03/18 01:11:34;;;;;;;13.27;6.20;;;;;;;4.34;73.72;100430.06;6193796;23;20047;-71
2023/03/18 01:14:01;;;;;;;18.80;6.63;;;;;;;4.41;73.27;100426.94;6210533;23;20027;-71
2023/03/18 01:16:28;;;;;;;16.83;6.85;;;;;;;4.25;73.64;100430.00;6184719;23;20096;-71
2023/03/18 01:18:56;;;;;;;16.00;6.10;;;;;;;4.25;74.55;100422.88;6209204;23;20432;-71
2023/03/18 01:21:23;;;;;;;19.27;6.60;;;;;;;4.27;74.78;100428.06;6209800;23;20099;-71
2023/03/18 01:23:49;;;;;;;23.30;6.07;;;;;;;4.28;74.51;100424.47;6211916;23;20021;-72
2023/03/18 01:26:16;;;;;;;15.23;5.90;;;;;;;4.28;73.99;100427.09;6209952;23;20353;-70
2023/03/18 01:28:43;;;;;;;12.70;5.72;;;;;;;4.20;74.51;100432.19;6209327;23;20062;-71
2023/03/18 01:31:11;;;;;;;13.43;6.30;;;;;;;4.30;74.08;100418.03;6210445;23;20450;-71
2023/03/18 01:33:39;;;;;;;16.83;6.35;;;;;;;4.19;74.86;100418.06;6208987;23;20091;-71
2023/03/18 01:36:06;;;;;;;21.13;6.20;;;;;;;4.15;74.23;100424.63;6210622;23;20048;-71
2023/03/18 01:38:33;;;;;;;18.48;5.90;;;;;;;4.25;74.34;100417.56;6210755;23;20465;-71
2023/03/18 01:41:00;;;;;;;16.83;6.03;;;;;;;4.20;74.00;100421.56;6208611;23;20044;-71
2023/03/18 01:43:33;;;;;;;16.65;5.55;;;;;;;4.24;73.50;100418.56;6209974;23;20034;-70
2023/03/18 01:46:01;;;;;;;17.23;5.68;;;;;;;4.29;72.93;100421.66;6209921;23;20027;-72
2023/03/18 01:48:30;;;;;;;14.82;6.03;;;;;;;4.20;72.86;100419.75;6210340;23;20031;-71
2023/03/18 01:51:04;;;;;;;10.77;5.68;;;;;;;4.37;73.68;100420.19;6210367;23;20020;-70
2023/03/18 01:53:37;;;;;;;16.17;5.88;;;;;;;4.38;72.53;100427.19;6210413;23;20331;-71
2023/03/18 01:56:05;;;;;;;14.57;5.63;;;;;;;4.23;72.77;100416.00;6210570;23;20356;-72
2023/03/18 01:58:40;;;;;;;12.40;5.65;;;;;;;4.39;72.33;100421.78;6210746;23;20419;-71
2023/03/18 02:01:24;;;;;;;13.77;6.18;;;;;;;4.32;72.67;100421.41;6210961;23;20020;-71
2023/03/18 02:03:52;;;;;;;12.63;5.95;;;;;;;4.25;72.23;100427.34;6203853;23;20100;-71
2023/03/18 02:10:12;;;;;;;20.00;6.05;;;;;;;4.07;72.68;100429.69;6209439;23;20015;-71
2023/03/18 02:12:44;;;;;;;12.00;5.05;;;;;;;4.13;72.56;100431.84;6210648;23;20012;-73
2023/03/18 02:15:15;;;;;;;13.70;6.30;;;;;;;4.12;72.60;100430.16;6210796;23;20016;-73
2023/03/18 02:17:48;;;;;;;14.52;5.72;;;;;;;4.06;73.44;100423.53;6210242;23;20017;-73
2023/03/18 02:20:27;;;;;;;14.07;5.40;;;;;;;4.04;72.85;100425.50;6209963;23;20108;-73
2023/03/18 02:23:29;;;;;;;16.85;5.82;;;;;;;4.19;72.39;100419.91;6183134;23;20028;-73
2023/03/18 02:26:07;;;;;;;16.45;5.78;;;;;;;4.24;72.45;100418.56;6208767;23;20396;-73
2023/03/18 02:28:36;;;;;;;14.10;6.00;;;;;;;4.23;72.44;100421.31;6207037;23;20020;-74
2023/03/18 02:31:08;;;;;;;13.07;5.80;;;;;;;4.20;71.66;100419.75;6210865;23;20027;-73
2023/03/18 02:33:38;;;;;;;12.55;5.78;;;;;;;4.15;71.57;100426.44;6209457;23;20043;-73
2023/03/18 02:36:09;;;;;;;14.10;6.00;;;;;;;4.08;71.33;100418.13;6170184;23;20017;-72
2023/03/18 02:38:41;;;;;;;18.40;5.85;;;;;;;4.20;71.36;100426.88;6210485;23;20446;-74
2023/03/18 02:41:17;;;;;;;14.77;5.93;;;;;;;4.12;70.94;100426.69;6210087;23;20027;-72
2023/03/18 02:43:44;;;;;;;15.50;6.50;;;;;;;4.26;70.87;100427.22;6209363;23;20505;-72
2023/03/18 02:46:27;;;;;;;15.70;5.50;;;;;;;4.22;70.27;100415.16;6209997;23;20017;-72
2023/03/18 02:48:55;;;;;;;14.40;6.45;;;;;;;4.22;70.68;100431.09;6209666;23;20048;-72
2023/03/18 02:51:22;;;;;;;13.48;5.57;;;;;;;4.16;70.62;100420.97;6209613;23;20450;-72
2023/03/18 02:53:49;;;;;;;11.00;5.28;;;;;;;4.15;70.17;100411.34;6183906;23;20103;-73
2023/03/18 02:56:16;;;;;;;12.40;5.75;;;;;;;4.26;70.21;100416.59;6209525;23;20410;-73
2023/03/18 02:58:43;;;;;;;14.32;5.78;;;;;;;4.27;69.72;100417.44;6206642;23;20024;-72
2023/03/18 03:01:10;;;;;;;13.52;5.95;;;;;;;4.27;69.82;100417.44;6209977;23;20354;-72
2023/03/18 03:03:37;;;;;;;13.50;5.82;;;;;;;4.18;69.84;100411.09;6208998;23;20094;-72
2023/03/18 03:06:05;;;;;;;14.07;6.30;;;;;;;4.07;70.13;100411.97;6209315;23;20091;-72
2023/03/18 03:08:31;;;;;;;12.05;5.97;;;;;;;4.12;69.77;100414.25;6209610;23;20024;-72
2023/03/18 03:10:58;;;;;;;16.17;6.03;;;;;;;4.15;69.58;100419.31;6209887;23;20446;-73
2023/03/18 03:13:24;;;;;;;13.80;5.72;;;;;;;4.24;69.15;100415.91;6209576;23;20439;-73
2023/03/18 03:15:51;;;;;;;15.98;6.57;;;;;;;4.20;69.01;100418.91;6210253;23;20028;-73
2023/03/18 03:18:17;;;;;;;14.15;5.72;;;;;;;4.27;68.79;100425.41;6208040;23;20468;-73
2023/03/18 03:20:44;;;;;;;11.43;5.93;;;;;;;4.29;68.49;100423.47;6209244;23;20021;-73
2023/03/18 03:23:13;;;;;;;10.45;4.97;;;;;;;4.33;68.41;100433.72;6210222;23;20021;-72
2023/03/18 03:25:40;;;;;;;12.55;5.43;;;;;;;4.29;68.26;100428.78;6211676;23;20107;-73
2023/03/18 03:28:08;;;;;;;11.45;6.00;;;;;;;4.31;68.25;100426.81;6210791;23;20349;-73
2023/03/18 03:30:35;;;;;;;15.82;6.45;;;;;;;4.30;67.84;100422.50;6210152;23;20027;-72
2023/03/18 03:33:03;;;;;;;11.75;5.07;;;;;;;4.29;67.96;100429.63;6209500;23;20524;-72
2023/03/18 03:35:30;;;;;;;14.77;5.88;;;;;;;4.31;68.07;100429.47;6210513;23;20044;-72
2023/03/18 03:37:57;;;;;;;13.05;6.40;;;;;;;4.32;67.53;100426.72;6209161;23;20517;-73
2023/03/18 03:40:24;;;;;;;10.63;5.82;;;;;;;4.30;67.65;100431.31;6209716;23;20111;-73
2023/03/18 03:42:51;;;;;;;20.35;5.63;;;;;;;4.21;68.04;100418.81;6210660;23;20103;-73
2023/03/18 03:45:18;;;;;;;13.90;5.85;;;;;;;4.27;68.13;100423.59;6209839;23;20052;-73
2023/03/18 03:47:45;;;;;;;14.05;5.22;;;;;;;4.21;68.34;100426.78;6209314;23;20098;-73
2023/03/18 03:50:14;;;;;;;15.52;5.85;;;;;;;4.29;67.91;100420.81;6169642;23;20044;-73
2023/03/18 03:52:42;;;;;;;12.57;5.10;;;;;;;4.26;68.19;100427.22;6206752;23;20100;-72
2023/03/18 03:55:12;;;;;;;14.43;4.97;;;;;;;4.26;68.44;100434.34;6210472;23;20012;-73
2023/03/18 03:57:40;;;;;;;13.38;5.43;;;;;;;4.21;68.23;100421.47;6209475;23;20024;-72
2023/03/18 04:00:13;;;;;;;14.77;5.53;;;;;;;4.24;68.36;100426.53;6209202;23;20020;-73
2023/03/18 04:02:42;;;;;;;10.93;5.47;;;;;;;4.23;68.20;100430.13;6201849;23;20354;-73
2023/03/18 04:05:10;;;;;;;11.73;5.65;;;;;;;4.22;68.14;100427.59;6208651;23;20043;-73
2023/03/18 04:07:37;;;;;;;17.52;6.45;;;;;;;4.25;68.97;100422.88;6211332;23;20358;-73
2023/03/18 04:10:05;;;;;;;21.27;5.72;;;;;;;4.24;68.60;100429.19;6208970;23;20031;-72
2023/03/18 04:12:31;;;;;;;11.05;5.95;;;;;;;4.20;68.54;100437.50;6211109;23;20349;-74
2023/03/18 04:14:58;;;;;;;13.65;5.60;;;;;;;4.24;68.56;100439.78;6195114;23;20115;-73
2023/03/18 04:17:24;;;;;;;14.73;5.10;;;;;;;4.20;68.94;100443.66;6210055;23;20095;-70
2023/03/18 04:19:51;;;;;;;15.70;6.80;;;;;;;4.21;68.73;100450.66;6234869;23;20074;-69
2023/03/18 04:22:17;;;;;;;10.95;5.68;;;;;;;4.24;69.25;100441.59;6233672;23;20010;-69
2023/03/18 04:24:44;;;;;;;12.60;5.43;;;;;;;4.20;69.09;100448.97;6236083;23;20028;-70
2023/03/18 04:27:11;;;;;;;14.85;5.40;;;;;;;4.23;68.69;100447.88;6236558;23;20031;-68
2023/03/18 04:29:38;;;;;;;15.85;5.53;;;;;;;4.14;68.69;100452.13;6235486;23;20017;-68
2023/03/18 04:32:05;;;;;;;18.67;5.20;;;;;;;4.16;68.76;100452.84;6235401;23;20020;-68
2023/03/18 04:34:31;;;;;;;12.50;5.53;;;;;;;4.15;69.18;100448.50;6235590;23;20530;-69
2023/03/18 04:36:58;;;;;;;14.10;5.47;;;;;;;4.18;69.13;100450.91;6227110;23;20076;-69
2023/03/18 04:39:24;;;;;;;15.77;6.03;;;;;;;4.17;69.26;100454.50;6235491;23;20047;-69
2023/03/18 04:41:51;;;;;;;15.80;6.03;;;;;;;4.12;69.24;100453.22;6235399;22;20009;-70
2023/03/18 04:44:18;;;;;;;13.65;5.35;;;;;;;4.13;69.30;100446.94;6236575;23;20020;-70
2023/03/18 04:46:45;;;;;;;15.15;5.57;;;;;;;4.16;69.21;100452.84;6226449;23;20107;-70
2023/03/18 04:49:11;;;;;;;15.85;5.80;;;;;;;4.16;69.58;100449.34;6236754;23;20027;-69
2023/03/18 04:51:38;;;;;;;15.23;6.22;;;;;;;4.15;69.44;100461.78;6234441;23;20089;-69
2023/03/18 04:54:05;;;;;;;10.77;5.50;;;;;;;4.11;69.87;100460.34;6233613;23;20011;-69
2023/03/18 04:56:33;;;;;;;16.85;5.47;;;;;;;4.03;70.16;100457.44;6224624;23;20016;-69
2023/03/18 04:58:59;;;;;;;12.98;5.70;;;;;;;4.04;70.39;100459.16;6234527;23;20040;-69
2023/03/18 05:01:26;;;;;;;17.63;5.70;;;;;;;4.03;70.71;100468.91;6235271;23;20068;-70
2023/03/18 05:03:52;;;;;;;13.80;4.88;;;;;;;4.02;70.74;100461.09;6234203;23;20009;-69
2023/03/18 05:06:22;;;;;;;12.18;6.03;;;;;;;4.02;71.12;100469.06;6236115;23;20025;-70
2023/03/18 05:08:48;;;;;;;16.10;5.55;;;;;;;4.00;70.95;100466.53;6202953;23;20021;-70
2023/03/18 05:11:16;;;;;;;11.27;5.85;;;;;;;3.98;70.96;100465.81;6231645;23;20016;-69
2023/03/18 05:13:43;;;;;;;13.73;5.43;;;;;;;4.00;71.51;100470.97;6235130;23;20025;-69
2023/03/18 05:16:09;;;;;;;19.25;5.93;;;;;;;4.03;71.80;100460.09;6227436;23;20051;-69
2023/03/18 05:18:37;;;;;;;14.70;6.10;;;;;;;3.99;71.96;100456.88;6235174;23;20032;-69
2023/03/18 05:21:06;;;;;;;12.43;5.53;;;;;;;3.98;71.70;100463.16;6232312;23;20017;-69
2023/03/18 05:23:33;;;;;;;14.55;5.75;;;;;;;3.97;72.41;100463.28;6235442;23;20150;-68
2023/03/18 05:25:59;;;;;;;13.13;5.78;;;;;;;3.99;72.70;100461.31;6233121;23;20029;-69
2023/03/18 05:28:26;;;;;;;12.88;5.93;;;;;;;3.90;73.11;100462.06;6235236;23;20044;-68
2023/03/18 05:30:53;;;;;;;13.07;6.45;;;;;;;3.86;73.15;100457.03;6234924;23;20016;-68
2023/03/18 05:33:19;;;;;;;20.63;6.68;;;;;;;3.89;73.89;100455.91;6235370;23;20057;-69
2023/03/18 05:35:48;;;;;;;14.77;6.15;;;;;;;3.91;73.51;100461.13;6226840;23;20025;-69
2023/03/18 05:38:15;;;;;;;11.82;5.60;;;;;;;3.91;73.87;100461.13;6234143;23;20032;-70
2023/03/18 05:40:42;;;;;;;14.63;5.93;;;;;;;3.93;74.40;100461.81;6235441;23;20044;-68
2023/03/18 05:43:09;;;;;;;12.00;5.90;;;;;;;3.94;74.08;100471.50;6234698;23;20047;-68
2023/03/18 05:45:36;;;;;;;11.23;5.50;;;;;;;3.85;74.72;100475.72;6234109;23;20020;-70
2023/03/18 05:48:05;;;;;;;13.50;5.90;;;;;;;3.80;74.89;100468.13;6233516;23;20032;-69
2023/03/18 05:50:35;;;;;;;15.95;6.32;;;;;;;3.80;74.84;100469.94;6206880;23;20021;-69
2023/03/18 05:53:03;;;;;;;17.05;6.85;;;;;;;3.88;74.26;100467.50;6233952;23;20030;-69
2023/03/18 05:55:31;;;;;;;15.77;6.40;;;;;;;3.81;74.98;100475.13;6235033;23;20028;-68
2023/03/18 05:57:59;;;;;;;10.85;5.70;;;;;;;3.92;74.85;100470.75;6233947;23;20117;-69
2023/03/18 06:00:30;;;;;;;17.90;6.03;;;;;;;3.88;74.36;100480.78;6234049;23;20009;-67
2023/03/18 06:02:58;;;;;;;9.85;5.53;;;;;;;3.84;74.62;100485.47;6234658;23;20035;-70
2023/03/18 06:05:25;;;;;;;10.05;5.45;;;;;;;3.81;74.89;100471.63;6234746;23;20058;-69
2023/03/18 06:07:53;;;;;;;15.60;6.63;;;;;;;3.79;75.09;100463.78;6234928;23;20020;-69
2023/03/18 06:10:21;;;;;;;19.83;7.03;;;;;;;3.84;75.32;100464.25;6236196;23;20012;-71
2023/03/18 06:12:49;;;;;;;14.75;6.13;;;;;;;3.94;74.46;100468.84;6236955;23;20088;-71
2023/03/18 06:15:17;;;;;;;16.33;6.68;;;;;;;3.87;74.54;100463.19;6236213;23;20052;-70
2023/03/18 06:17:44;;;;;;;12.57;5.55;;;;;;;3.94;75.17;100479.44;6235398;23;20044;-70
2023/03/18 06:20:13;;;;;;;16.70;6.43;;;;;;;3.90;74.79;100489.47;6236682;23;20100;-70
2023/03/18 06:22:39;;;;;;;17.58;6.68;;;;;;;3.91;75.10;100477.88;6211100;23;20023;-68
2023/03/18 06:25:07;;;;;;;15.98;6.00;;;;;;;3.92;74.99;100487.53;6236635;23;21392;-70
2023/03/18 06:27:34;;;;;;;16.70;7.43;;;;;;;3.94;74.73;100487.41;6235683;23;20028;-69
2023/03/18 06:30:03;;;;;;;20.65;7.60;;;;;;;4.00;75.55;100487.78;6234740;23;20064;-69
2023/03/18 06:32:30;;;;;;;17.60;6.85;;;;;;;4.09;75.25;100491.47;6236119;23;20024;-68
2023/03/18 06:34:57;;;;;;;15.63;6.72;;;;;;;3.99;75.69;100494.03;6236068;23;20047;-69
2023/03/18 06:37:23;;;;;;;16.80;6.88;;;;;;;4.00;75.98;100492.22;6236128;23;20028;-67
2023/03/18 06:39:50;;;;;;;14.00;6.68;;;;;;;4.05;76.42;100490.03;6235779;23;20076;-69
2023/03/18 06:42:16;;;;;;;22.58;6.20;;;;;;;3.98;76.59;100488.84;6235602;23;20008;-69
2023/03/18 06:44:49;;;;;;;21.30;6.93;;;;;;;4.01;76.62;100481.47;6236989;23;20025;-67
2023/03/18 06:47:20;;;;;;;13.48;6.40;;;;;;;4.03;76.82;100489.31;6234958;23;20024;-67
2023/03/18 06:49:48;;;;;;;20.13;7.75;;;;;;;4.23;76.79;100487.69;6235109;23;20047;-69
2023/03/18 06:52:16;;;;;;;22.67;7.30;;;;;;;4.24;76.43;100486.72;6236606;23;20012;-67
2023/03/18 06:54:44;;;;;;;17.02;7.32;;;;;;;4.12;76.24;100496.53;6236557;23;20040;-69
2023/03/18 06:57:12;;;;;;;14.10;6.75;;;;;;;4.18;75.90;100505.84;6235862;23;20008;-70
2023/03/18 06:59:39;;;;;;;18.40;6.97;;;;;;;4.24;75.38;100506.19;6234731;23;20011;-68
2023/03/18 07:02:07;;;;;;;19.65;7.68;;;;;;;4.40;74.89;100513.75;6234533;23;20064;-69
2023/03/18 07:04:34;;;;;;;14.55;6.78;;;;;;;4.53;73.85;100514.44;6223405;23;20090;-68
2023/03/18 07:07:01;;;;;;;16.70;6.57;;;;;;;4.65;73.33;100523.22;6234750;23;20020;-68
2023/03/18 07:09:27;;;;;;;16.05;6.63;;;;;;;4.76;72.64;100531.16;6235355;23;20028;-68
2023/03/18 07:11:54;;;;;;;11.63;6.85;;;;;;;4.82;71.79;100541.25;6228529;23;20033;-69
2023/03/18 07:14:21;;;;;;;17.17;6.90;;;;;;;4.97;71.55;100532.97;6234759;23;20025;-68
2023/03/18 07:16:48;;;;;;;12.63;6.45;;;;;;;5.00;71.28;100538.88;6235031;23;20077;-69
2023/03/18 07:19:16;;;;;;;12.30;5.97;;;;;;;5.12;71.28;100541.50;6236003;23;20020;-68
2023/03/18 07:21:44;;;;;;;12.27;6.40;;;;;;;5.35;69.84;100536.88;6235452;23;20027;-68
2023/03/18 07:24:11;;;;;;;16.73;6.07;;;;;;;5.60;68.78;100532.97;6200886;23;20076;-69
2023/03/18 07:26:38;;;;;;;9.60;6.28;;;;;;;5.81;67.41;100535.59;6234066;23;20055;-67
2023/03/18 07:29:04;;;;;;;18.50;6.72;;;;;;;5.81;67.11;100536.41;6231624;23;20024;-69
2023/03/18 07:31:31;;;;;;;18.48;7.22;;;;;;;5.76;67.61;100538.63;6229476;23;20017;-68
2023/03/18 07:33:58;;;;;;;17.00;7.40;;;;;;;5.78;67.72;100539.34;6229102;23;20040;-68
2023/03/18 07:36:25;;;;;;;22.85;6.68;;;;;;;5.97;67.03;100544.72;6230416;23;20025;-69
2023/03/18 07:38:52;;;;;;;18.90;6.50;;;;;;;6.31;65.89;100540.94;6221838;23;20041;-70
2023/03/18 07:41:18;;;;;;;15.13;6.13;;;;;;;6.65;64.18;100541.41;6209685;23;20021;-70
2023/03/18 07:43:45;;;;;;;13.10;6.72;;;;;;;7.06;62.57;100537.63;6210724;23;20021;-72
2023/03/18 07:46:11;;;;;;;12.07;5.82;;;;;;;7.39;61.76;100554.13;6199737;23;20346;-74
2023/03/18 07:48:38;;;;;;;14.60;6.80;;;;;;;7.00;61.87;100558.69;6210776;23;20028;-72
2023/03/18 07:51:05;;;;;;;15.68;6.93;;;;;;;7.69;60.45;100558.41;6211090;23;20075;-73
2023/03/18 07:53:32;;;;;;;15.50;6.82;;;;;;;7.80;60.15;100566.25;6212495;23;20021;-73
2023/03/18 07:55:59;;;;;;;13.00;6.60;;;;;;;8.00;58.92;100560.88;6211576;23;20024;-73
2023/03/18 07:58:26;;;;;;;18.67;6.15;;;;;;;7.87;59.73;100579.91;6212308;23;20040;-72
2023/03/18 08:00:52;;;;;;;14.52;6.22;;;;;;;8.09;59.31;100566.19;6211631;23;20021;-74
2023/03/18 08:03:19;;;;;;;15.50;6.40;;;;;;;8.45;58.58;100576.13;6213057;23;20059;-72
2023/03/18 08:05:46;;;;;;;15.02;6.50;;;;;;;8.12;59.14;100575.72;6219043;23;20001;-72
2023/03/18 08:08:12;;;;;;;18.50;8.70;;;;;;;7.97;59.55;100580.69;6236116;23;20043;-72
2023/03/18 08:10:39;;;;;;;14.85;7.80;;;;;;;8.35;58.86;100570.81;6238256;23;20004;-70
2023/03/18 08:13:05;;;;;;;13.45;7.25;;;;;;;8.85;57.58;100575.72;6235733;23;20043;-71
2023/03/18 08:15:32;;;;;;;16.10;7.45;;;;;;;9.22;55.94;100556.78;6233513;23;20024;-71
2023/03/18 08:17:59;;;;;;;15.60;8.00;;;;;;;9.49;55.63;100563.88;6231991;23;20009;-72
2023/03/18 08:20:26;;;;;;;13.65;7.03;;;;;;;9.52;55.34;100568.91;6232257;23;20048;-71
2023/03/18 08:22:53;;;;;;;14.05;6.15;;;;;;;9.49;54.71;100571.91;6233605;23;20028;-72
2023/03/18 08:25:21;;;;;;;12.25;6.38;;;;;;;10.12;53.63;100575.28;6225725;23;20032;-72
2023/03/18 08:27:49;;;;;;;13.15;6.32;;;;;;;10.77;52.39;100580.03;6230049;23;20025;-72
2023/03/18 08:30:16;;;;;;;10.32;6.38;;;;;;;10.75;52.37;100577.50;6230829;23;20025;-73
2023/03/18 08:32:43;;;;;;;9.38;5.93;;;;;;;10.46;52.18;100581.44;6230829;23;20072;-73
2023/03/18 08:35:11;;;;;;;11.43;6.30;;;;;;;11.05;51.49;100578.72;6231489;23;20072;-72
2023/03/18 08:37:38;;;;;;;15.23;6.93;;;;;;;10.77;52.17;100572.81;6230695;23;20044;-71
2023/03/18 08:40:05;;;;;;;12.10;6.22;;;;;;;10.15;53.19;100583.00;6231334;23;20040;-71
2023/03/18 08:42:31;;;;;;;12.15;6.25;;;;;;;10.02;54.28;100573.53;6231514;23;20016;-71
2023/03/18 08:44:58;;;;;;;15.27;6.15;;;;;;;9.82;54.81;100569.44;6232697;23;20024;-71
2023/03/18 08:47:26;;;;;;;13.13;6.45;;;;;;;9.89;55.01;100573.16;6231966;23;20077;-72
2023/03/18 08:49:52;;;;;;;13.85;5.68;;;;;;;9.25;56.26;100566.38;6232966;23;20051;-71
2023/03/18 08:52:19;;;;;;;11.05;6.25;;;;;;;9.95;55.66;100567.16;6230896;23;20024;-71
2023/03/18 08:54:46;;;;;;;13.30;5.32;;;;;;;10.31;54.81;100571.50;6230653;23;20020;-71
2023/03/18 08:57:13;;;;;;;11.70;5.88;;;;;;;10.44;54.10;100580.78;6231000;23;20021;-72
2023/03/18 08:59:39;;;;;;;17.05;5.88;;;;;;;10.43;54.35;100584.44;6220603;23;20025;-71
2023/03/18 09:02:07;;;;;;;16.52;5.82;;;;;;;10.64;54.57;100586.72;6230435;23;20158;-70
2023/03/18 09:04:33;;;;;;;12.68;5.88;;;;;;;10.30;55.08;100586.72;6231946;23;20099;-71
2023/03/18 09:07:00;;;;;;;14.30;6.00;;;;;;;10.23;54.87;100588.38;6231159;23;20048;-71
2023/03/18 09:09:26;;;;;;;10.65;5.80;;;;;;;10.10;56.31;100598.69;6229788;23;20032;-71
2023/03/18 09:12:10;;;;;;;17.00;6.10;;;;;;;10.09;56.02;100591.66;6232032;23;20021;-72
2023/03/18 09:14:37;;;;;;;13.80;5.90;;;;;;;10.54;55.52;100590.53;6230940;23;20013;-71
2023/03/18 09:17:05;;;;;;;13.60;5.75;;;;;;;10.79;54.38;100594.97;6205036;23;20021;-71
2023/03/18 09:19:31;;;;;;;9.07;5.40;;;;;;;11.35;53.92;100595.19;6231353;23;20032;-72
2023/03/18 09:21:58;;;;;;;12.23;5.00;;;;;;;12.20;51.58;100586.63;6229563;23;20024;-72
2023/03/18 09:24:24;;;;;;;17.33;5.70;;;;;;;11.81;51.42;100593.66;6203704;23;20029;-72
2023/03/18 09:26:51;;;;;;;9.55;5.07;;;;;;;12.13;51.26;100599.94;6229722;23;20044;-72
2023/03/18 09:29:19;;;;;;;12.40;5.75;;;;;;;12.01;51.10;100595.97;6228399;23;20028;-71
2023/03/18 09:31:45;;;;;;;14.98;5.50;;;;;;;12.25;50.48;100595.88;6229040;23;20032;-71
2023/03/18 09:34:13;;;;;;;13.40;5.10;;;;;;;12.26;50.66;100600.22;6229954;23;20080;-72
2023/03/18 09:36:41;;;;;;;17.48;5.53;;;;;;;12.36;50.28;100606.25;6228246;23;20047;-71
2023/03/18 09:39:08;;;;;;;14.32;5.07;;;;;;;11.96;51.22;100603.69;6228178;23;20051;-72
2023/03/18 09:41:44;;;;;;;12.52;5.35;;;;;;;12.45;50.19;100606.19;6229448;23;20028;-72
2023/03/18 09:44:20;;;;;;;16.63;6.15;;;;;;;13.05;48.73;100605.56;6227154;23;20055;-71
2023/03/18 09:47:17;;;;;;;8.45;5.03;;;;;;;13.61;47.95;100600.69;6224190;23;20424;-71
2023/03/18 09:50:20;;;;;;;13.18;5.22;;;;;;;13.77;47.35;100605.97;6180298;23;20096;-73
2023/03/18 09:52:52;;;;;;;10.18;5.35;;;;;;;13.23;47.57;100611.47;6191929;23;20420;-72
2023/03/18 09:55:39;;;;;;;9.43;5.13;;;;;;;14.28;46.04;100606.06;6210883;23;20052;-73
2023/03/18 09:58:23;;;;;;;8.18;4.70;;;;;;;14.75;45.05;100604.81;6211392;23;20032;-72
2023/03/18 10:00:54;;;;;;;11.20;5.03;;;;;;;15.48;43.92;100599.28;6224544;22;20505;-75
2023/03/18 10:03:33;;;;;;;12.35;4.90;;;;;;;15.08;43.55;100607.00;6230328;23;20025;-71
2023/03/18 10:06:06;;;;;;;16.02;5.07;;;;;;;15.64;42.72;100609.84;6233843;23;20023;-71
2023/03/18 10:11:22;;;;;;;9.50;4.20;;;;;;;15.94;43.01;100601.50;6197634;22;20205;-71
2023/03/18 10:22:53;;;;;;;12.35;4.68;;;;;;;17.00;40.68;100598.44;6218114;22;20053;-71
2023/03/18 10:25:26;;;;;;;12.02;4.50;;;;;;;15.91;41.29;100597.31;6237572;22;20035;-72
2023/03/18 10:28:16;;;;;;;11.65;5.03;;;;;;;15.12;43.52;100605.63;6236455;22;20016;-71
2023/03/18 10:31:15;;;;;;;9.82;4.68;;;;;;;15.71;42.95;100605.31;6182736;23;20104;-71
2023/03/18 10:33:42;;;;;;;10.20;4.72;;;;;;;15.49;43.26;100598.22;6208363;23;20071;-71
2023/03/18 10:36:30;;;;;;;12.05;4.53;;;;;;;15.82;42.45;100597.69;6204330;23;20024;-70
2023/03/18 10:38:59;;;;;;;10.35;4.78;;;;;;;15.22;43.48;100603.44;6203229;23;20025;-71
2023/03/18 10:41:34;;;;;;;9.07;4.78;;;;;;;16.14;42.59;100599.75;6209749;23;20048;-71
2023/03/18 10:44:21;;;;;;;12.02;5.03;;;;;;;15.09;43.96;100599.75;6210232;23;20414;-70
2023/03/18 10:47:06;;;;;;;8.63;4.45;;;;;;;15.48;43.71;100605.50;6209463;23;20410;-70
2023/03/18 10:49:41;;;;;;;11.50;4.68;;;;;;;15.71;43.21;100612.59;6208600;23;20027;-71
2023/03/18 10:52:27;;;;;;;9.73;4.72;;;;;;;15.68;43.13;100604.88;6209266;23;20335;-71
2023/03/18 10:54:53;;;;;;;9.32;4.97;;;;;;;14.76;45.03;100614.56;6209361;23;20418;-71
2023/03/18 10:57:21;;;;;;;8.23;4.60;;;;;;;14.90;45.09;100606.63;6209404;23;20108;-71
2023/03/18 10:59:50;;;;;;;9.82;5.15;;;;;;;15.54;44.45;100601.19;6209648;23;20040;-71
2023/03/18 11:02:33;;;;;;;10.10;4.93;;;;;;;14.62;46.31;100609.19;6207678;23;20067;-71
2023/03/18 11:05:23;;;;;;;14.05;4.95;;;;;;;14.77;46.45;100605.47;6209463;23;20020;-71
2023/03/18 11:08:06;;;;;;;15.25;4.85;;;;;;;14.65;47.38;100600.69;6209388;23;20020;-71
2023/03/18 11:10:42;;;;;;;12.57;4.85;;;;;;;14.98;46.75;100598.38;6201344;23;20460;-71
2023/03/18 11:13:15;;;;;;;11.32;4.55;;;;;;;14.35;48.47;100598.03;6209745;23;20123;-71
2023/03/18 11:15:50;;;;;;;9.05;4.18;;;;;;;13.64;50.53;100600.34;6156079;23;20418;-71
2023/03/18 11:18:21;;;;;;;10.98;4.93;;;;;;;14.03;50.63;100597.41;6199886;23;20402;-71
2023/03/18 11:21:00;;;;;;;10.15;4.25;;;;;;;13.48;53.04;100597.78;6187392;23;20024;-72
2023/03/18 11:23:55;;;;;;;11.45;4.32;;;;;;;13.39;52.97;100604.25;6211606;23;20024;-72
2023/03/18 11:26:23;;;;;;;11.68;4.90;;;;;;;13.09;53.90;100596.91;6212241;23;20020;-71
2023/03/18 11:28:56;;;;;;;13.43;5.22;;;;;;;12.98;54.12;100594.66;6212909;23;20028;-71
2023/03/18 11:31:23;;;;;;;9.45;4.75;;;;;;;12.92;54.98;100583.75;6229160;23;20040;-69
2023/03/18 11:33:56;;;;;;;9.10;4.82;;;;;;;12.88;55.71;100600.28;6221418;23;20023;-69
2023/03/18 11:36:25;;;;;;;18.70;4.95;;;;;;;12.62;58.27;100597.84;6229336;23;20045;-69
2023/03/18 11:39:03;;;;;;;13.30;4.05;;;;;;;12.75;58.89;100607.25;6229454;23;20025;-70
2023/03/18 11:41:29;;;;;;;8.82;3.95;;;;;;;12.85;58.77;100603.31;6230748;23;20024;-69
2023/03/18 11:44:00;;;;;;;13.63;4.78;;;;;;;12.83;59.93;100605.38;6223463;23;20049;-69
2023/03/18 11:46:36;;;;;;;9.53;4.30;;;;;;;13.89;57.30;100600.13;6204083;23;20059;-69
2023/03/18 11:49:03;;;;;;;8.60;3.95;;;;;;;14.53;54.78;100600.34;6227583;23;20445;-68